Terminal Aerodrome Forecast
Issued by NWS

Home | Current Version | Previous Version | Text Only | Print | Product List | Glossary Off
Versions: 1 2 3 4 5 6 7 8 9 10 11 12 13 14 15 16 17 18 19 20 21 22 23

000
FTUS43 KABR 061120
TAFATY
TAF
KATY 061120Z 0612/0712 12011KT P6SM OVC015
      TEMPO 0612/0615 5SM -SHRA BR OVC006
     FM061500 15015KT 5SM -SHRA BR OVC010=

USA.gov is the U.S. government's official web portal to all federal, state and local government web resources and services.